Maran Pythia — SVAQ5 — position and weather

sailwx.info

Track history (hours):
 
Tides and Currents Weather Stations Pressure Air Temp Water Temp Dewpoint Dewpoint Depression Visibility Wind Speed Wind Dir Waves Ship Positions

Maran Pythia

Last reported at 2014-Oct-24 22:03 UTC. Time now 2014-Oct-25 12:06 UTC.
Position N 44°37' E 037°19'.

Length 274 m; draft 9.1 m.

Type: Tanker. MMSI: 240893000.

Date/timePositionNaut miles runAvg speedWind from/ knotsBaromVisibWave heightAir tempDewpointWater temp
2014-Oct-24 22:03N 44°37' E 037°19'3 3.1
2014-Oct-24 21:07N 44°36' E 037°23'2 3.7
2014-Oct-24 20:31N 44°35' E 037°26'4 4.5
2014-Oct-24 19:33N 44°34' E 037°32'5 4.9
2014-Oct-24 18:33N 44°34' E 037°25'10 2.0
2014-Oct-24 13:32N 44°35' E 037°12'2 1.8
2014-Oct-24 12:28N 44°35' E 037°14'2 2.0
2014-Oct-24 11:33N 44°35' E 037°17'3 2.6
2014-Oct-24 10:33N 44°34' E 037°20'3 3.2
2014-Oct-24 09:33N 44°33' E 037°25'3 3.2
2014-Oct-24 08:33N 44°33' E 037°29'4 4.4
2014-Oct-24 07:33N 44°30' E 037°34'9 8.6
2014-Oct-24 06:33N 44°23' E 037°27'16 8.3
2014-Oct-24 04:33N 44°16' E 037°06'36 8.9
2014-Oct-24 00:32N 43°59' E 036°22'9 9.1
2014-Oct-23 23:33N 43°55' E 036°11'12 9.1
2014-Oct-23 22:11N 43°49' E 035°55'9 9.3
2014-Oct-23 21:16N 43°45' E 035°45'7 9.5
2014-Oct-23 20:33N 43°42' E 035°36'10 9.4
2014-Oct-23 19:31N 43°38' E 035°25'10 9.4
2014-Oct-23 18:27N 43°33' E 035°12'8 9.2
2014-Oct-23 17:33N 43°29' E 035°02'9 9.1
2014-Oct-23 16:33N 43°25' E 034°51'10 9.5
2014-Oct-23 15:33N 43°21' E 034°39'10 9.6
2014-Oct-23 14:33N 43°17' E 034°28'10 9.9
2014-Oct-23 13:33N 43°12' E 034°16'1010.0
2014-Oct-23 12:33N 43°07' E 034°04'1210.4
2014-Oct-23 11:26N 43°02' E 033°50'910.2
2014-Oct-23 10:33N 42°58' E 033°39'2310.1
2014-Oct-23 08:17N 42°47' E 033°11'17810.1
2014-Oct-22 14:33N 41°25' E 029°37'1110.6
2014-Oct-22 13:33N 41°21' E 029°25'1111.0
2014-Oct-22 12:33N 41°16' E 029°12'2110.5
2014-Oct-22 10:33N 40°57' E 028°60'5 5.3
2014-Oct-22 09:33N 40°55' E 028°53'3 0.9
2014-Oct-22 06:31N 40°56' E 028°50'0 0.0
2014-Oct-22 05:31N 40°56' E 028°50'0 0.0
2014-Oct-22 00:31N 40°56' E 028°50'0 0.0
2014-Oct-21 23:19N 40°56' E 028°50'0 0.1
2014-Oct-21 21:31N 40°56' E 028°50'0 0.1
2014-Oct-21 20:31N 40°56' E 028°50'0 0.2
2014-Oct-21 19:25N 40°56' E 028°51'0 0.0
2014-Oct-21 16:31N 40°56' E 028°51'0 0.0
2014-Oct-21 15:31N 40°56' E 028°51'0 0.0
2014-Oct-21 14:07N 40°56' E 028°51'0 0.0
2014-Oct-21 12:07N 40°56' E 028°51'0 0.0
2014-Oct-21 11:07N 40°56' E 028°51'0 0.0
2014-Oct-21 09:25N 40°56' E 028°51'0 0.0
2014-Oct-21 08:31N 40°56' E 028°51'0 0.0
2014-Oct-21 05:07N 40°56' E 028°51'0 0.0
2014-Oct-21 04:25N 40°56' E 028°51'0 0.0
2014-Oct-21 02:25N 40°56' E 028°51'0 0.1
2014-Oct-20 21:26N 40°56' E 028°51'4 4.3
2014-Oct-20 20:33N 40°52' E 028°50'9 9.5
2014-Oct-20 19:33N 40°50' E 028°38'10 9.8
2014-Oct-20 18:33N 40°48' E 028°25'10 9.9
2014-Oct-20 17:33N 40°47' E 028°12'78 9.5
2014-Oct-20 09:21N 40°19' E 026°36'2611.6
2014-Oct-20 07:05N 40°01' E 026°11'3 6.4
2014-Oct-20 06:33N 40°00' E 026°07'9 8.8
2014-Oct-20 05:33N 39°56' E 025°57'8 8.3
2014-Oct-20 04:33N 39°49' E 025°50'9 8.2
2014-Oct-20 03:25N 39°46' E 025°39'4 0.6
2014-Oct-19 21:04N 39°45' E 025°34'3 1.0
2014-Oct-19 17:32N 39°46' E 025°38'20 5.9
2014-Oct-19 14:07N 39°44' E 025°12'10 3.9
2014-Oct-19 11:33N 39°48' E 025°00'10 8.8
2014-Oct-19 10:23N 39°40' E 024°52'116 9.7
2014-Oct-18 22:29N 37°45' E 024°34'1210.4
2014-Oct-18 21:21N 37°34' E 024°27'810.0
2014-Oct-18 20:30N 37°28' E 024°20'9 8.4
2014-Oct-18 19:29N 37°21' E 024°14'9 9.2
2014-Oct-18 18:33N 37°15' E 024°07'9 9.0
2014-Oct-18 17:33N 37°07' E 024°01'9 8.6
2014-Oct-18 16:33N 37°00' E 023°55'8 8.4
2014-Oct-18 15:33N 36°53' E 023°48'9 8.8
2014-Oct-18 14:33N 36°47' E 023°41'10 9.5
2014-Oct-18 13:33N 36°39' E 023°34'9 9.5
2014-Oct-18 12:33N 36°32' E 023°26'12 9.6
2014-Oct-18 11:20N 36°23' E 023°17'1310.1
2014-Oct-18 10:03N 36°25' E 023°01'1 0.0
2014-Oct-17 15:10N 36°25' E 023°01'5 8.3
2014-Oct-17 14:33N 36°25' E 022°54'1010.4
2014-Oct-17 13:33N 36°21' E 022°42'1010.1
2014-Oct-17 12:32N 36°16' E 022°31'  
Track history (hours):
 
Tides and Currents Weather Stations Pressure Air Temp Water Temp Dewpoint Dewpoint Depression Visibility Wind Speed Wind Dir Waves Ship Positions

Maran Pythia

Last reported at 2014-Oct-24 22:03 UTC. Time now 2014-Oct-25 12:06 UTC.
Position N 44°37' E 037°19'.

Length 274 m; draft 9.1 m.

Type: Tanker. MMSI: 240893000.

Date/timePositionNaut miles runAvg speedWind from/ knotsBaromVisibWave heightAir tempDewpointWater temp
2014-Oct-24 22:03N 44°37' E 037°19'3 3.1
2014-Oct-24 21:07N 44°36' E 037°23'2 3.7
2014-Oct-24 20:31N 44°35' E 037°26'4 4.5
2014-Oct-24 19:33N 44°34' E 037°32'5 4.9
2014-Oct-24 18:33N 44°34' E 037°25'10 2.0
2014-Oct-24 13:32N 44°35' E 037°12'2 1.8
2014-Oct-24 12:28N 44°35' E 037°14'2 2.0
2014-Oct-24 11:33N 44°35' E 037°17'3 2.6
2014-Oct-24 10:33N 44°34' E 037°20'3 3.2
2014-Oct-24 09:33N 44°33' E 037°25'3 3.2
2014-Oct-24 08:33N 44°33' E 037°29'4 4.4
2014-Oct-24 07:33N 44°30' E 037°34'9 8.6
2014-Oct-24 06:33N 44°23' E 037°27'16 8.3
2014-Oct-24 04:33N 44°16' E 037°06'36 8.9
2014-Oct-24 00:32N 43°59' E 036°22'9 9.1
2014-Oct-23 23:33N 43°55' E 036°11'12 9.1
2014-Oct-23 22:11N 43°49' E 035°55'9 9.3
2014-Oct-23 21:16N 43°45' E 035°45'7 9.5
2014-Oct-23 20:33N 43°42' E 035°36'10 9.4
2014-Oct-23 19:31N 43°38' E 035°25'10 9.4
2014-Oct-23 18:27N 43°33' E 035°12'8 9.2
2014-Oct-23 17:33N 43°29' E 035°02'9 9.1
2014-Oct-23 16:33N 43°25' E 034°51'10 9.5
2014-Oct-23 15:33N 43°21' E 034°39'10 9.6
2014-Oct-23 14:33N 43°17' E 034°28'10 9.9
2014-Oct-23 13:33N 43°12' E 034°16'1010.0
2014-Oct-23 12:33N 43°07' E 034°04'1210.4
2014-Oct-23 11:26N 43°02' E 033°50'910.2
2014-Oct-23 10:33N 42°58' E 033°39'2310.1
2014-Oct-23 08:17N 42°47' E 033°11'17810.1
2014-Oct-22 14:33N 41°25' E 029°37'1110.6
2014-Oct-22 13:33N 41°21' E 029°25'1111.0
2014-Oct-22 12:33N 41°16' E 029°12'2110.5
2014-Oct-22 10:33N 40°57' E 028°60'5 5.3
2014-Oct-22 09:33N 40°55' E 028°53'3 0.9
2014-Oct-22 06:31N 40°56' E 028°50'0 0.0
2014-Oct-22 05:31N 40°56' E 028°50'0 0.0
2014-Oct-22 00:31N 40°56' E 028°50'0 0.0
2014-Oct-21 23:19N 40°56' E 028°50'0 0.1
2014-Oct-21 21:31N 40°56' E 028°50'0 0.1
2014-Oct-21 20:31N 40°56' E 028°50'0 0.2
2014-Oct-21 19:25N 40°56' E 028°51'0 0.0
2014-Oct-21 16:31N 40°56' E 028°51'0 0.0
2014-Oct-21 15:31N 40°56' E 028°51'0 0.0
2014-Oct-21 14:07N 40°56' E 028°51'0 0.0
2014-Oct-21 12:07N 40°56' E 028°51'0 0.0
2014-Oct-21 11:07N 40°56' E 028°51'0 0.0
2014-Oct-21 09:25N 40°56' E 028°51'0 0.0
2014-Oct-21 08:31N 40°56' E 028°51'0 0.0
2014-Oct-21 05:07N 40°56' E 028°51'0 0.0
2014-Oct-21 04:25N 40°56' E 028°51'0 0.0
2014-Oct-21 02:25N 40°56' E 028°51'0 0.1
2014-Oct-20 21:26N 40°56' E 028°51'4 4.3
2014-Oct-20 20:33N 40°52' E 028°50'9 9.5
2014-Oct-20 19:33N 40°50' E 028°38'10 9.8
2014-Oct-20 18:33N 40°48' E 028°25'10 9.9
2014-Oct-20 17:33N 40°47' E 028°12'78 9.5
2014-Oct-20 09:21N 40°19' E 026°36'2611.6
2014-Oct-20 07:05N 40°01' E 026°11'3 6.4
2014-Oct-20 06:33N 40°00' E 026°07'9 8.8
2014-Oct-20 05:33N 39°56' E 025°57'8 8.3
2014-Oct-20 04:33N 39°49' E 025°50'9 8.2
2014-Oct-20 03:25N 39°46' E 025°39'4 0.6
2014-Oct-19 21:04N 39°45' E 025°34'3 1.0
2014-Oct-19 17:32N 39°46' E 025°38'20 5.9
2014-Oct-19 14:07N 39°44' E 025°12'10 3.9
2014-Oct-19 11:33N 39°48' E 025°00'10 8.8
2014-Oct-19 10:23N 39°40' E 024°52'116 9.7
2014-Oct-18 22:29N 37°45' E 024°34'1210.4
2014-Oct-18 21:21N 37°34' E 024°27'810.0
2014-Oct-18 20:30N 37°28' E 024°20'9 8.4
2014-Oct-18 19:29N 37°21' E 024°14'9 9.2
2014-Oct-18 18:33N 37°15' E 024°07'9 9.0
2014-Oct-18 17:33N 37°07' E 024°01'9 8.6
2014-Oct-18 16:33N 37°00' E 023°55'8 8.4
2014-Oct-18 15:33N 36°53' E 023°48'9 8.8
2014-Oct-18 14:33N 36°47' E 023°41'10 9.5
2014-Oct-18 13:33N 36°39' E 023°34'9 9.5
2014-Oct-18 12:33N 36°32' E 023°26'12 9.6
2014-Oct-18 11:20N 36°23' E 023°17'1310.1
2014-Oct-18 10:03N 36°25' E 023°01'1 0.0
2014-Oct-17 15:10N 36°25' E 023°01'5 8.3
2014-Oct-17 14:33N 36°25' E 022°54'1010.4
2014-Oct-17 13:33N 36°21' E 022°42'1010.1
2014-Oct-17 12:32N 36°16' E 022°31'  

Dump ship's entire track history